createdAt,value
2018-12-30T00:00:41.284Z,0
2018-12-30T00:01:53.553Z,0
2018-12-30T00:03:05.848Z,0
2018-12-30T00:04:18.015Z,0
2018-12-30T00:05:30.133Z,0
2018-12-30T00:06:42.321Z,0
2018-12-30T00:07:54.533Z,0
2018-12-30T00:09:06.641Z,0
2018-12-30T00:10:18.903Z,0
2018-12-30T00:11:31.029Z,0
2018-12-30T00:12:43.305Z,0
2018-12-30T00:13:55.494Z,0
2018-12-30T00:15:07.613Z,0
2018-12-30T00:16:19.810Z,0
2018-12-30T00:17:32.081Z,0
2018-12-30T00:18:44.273Z,0
2018-12-30T00:19:56.391Z,0
2018-12-30T00:21:08.674Z,0
2018-12-30T00:22:20.860Z,0
2018-12-30T00:23:32.972Z,0
2018-12-30T00:24:45.235Z,0
2018-12-30T00:25:57.370Z,0
2018-12-30T00:27:09.660Z,0
2018-12-30T00:28:21.836Z,0
2018-12-30T00:29:34.000Z,0
2018-12-30T00:30:46.296Z,0
2018-12-30T00:31:58.392Z,0
2018-12-30T00:33:10.529Z,0
2018-12-30T00:34:22.885Z,0
2018-12-30T00:35:35.008Z,0
2018-12-30T00:36:47.227Z,0
2018-12-30T00:37:59.404Z,0
2018-12-30T00:39:11.580Z,0
2018-12-30T00:40:23.771Z,0
2018-12-30T00:41:35.968Z,0
2018-12-30T00:42:48.058Z,0
2018-12-30T00:44:00.372Z,0
2018-12-30T00:45:12.550Z,0
2018-12-30T00:46:24.673Z,0
2018-12-30T00:47:36.927Z,0
2018-12-30T00:48:49.042Z,0
2018-12-30T00:50:01.364Z,0
2018-12-30T00:51:13.431Z,0
2018-12-30T00:52:25.681Z,0
2018-12-30T00:53:37.890Z,0
2018-12-30T00:54:50.078Z,0
2018-12-30T00:56:02.269Z,0
2018-12-30T00:57:14.394Z,0
2018-12-30T00:58:26.678Z,0
2018-12-30T00:59:38.775Z,0
2018-12-30T01:00:51.048Z,0
2018-12-30T01:02:03.171Z,0
2018-12-30T01:03:15.457Z,0
2018-12-30T01:04:27.653Z,0
2018-12-30T01:05:39.842Z,0
2018-12-30T01:06:51.945Z,0
2018-12-30T01:08:04.155Z,0
2018-12-30T01:09:16.335Z,0
2018-12-30T01:10:28.649Z,0
2018-12-30T01:11:40.799Z,0
2018-12-30T01:12:52.939Z,0
2018-12-30T01:14:05.140Z,0
2018-12-30T01:15:17.323Z,0
2018-12-30T01:16:29.585Z,0
2018-12-30T01:17:41.770Z,0
2018-12-30T01:18:53.881Z,0
2018-12-30T01:20:06.238Z,0
2018-12-30T01:21:18.352Z,0
2018-12-30T01:22:30.464Z,0
2018-12-30T01:23:42.735Z,0
2018-12-30T01:24:54.864Z,0
2018-12-30T01:26:07.067Z,0
2018-12-30T01:27:19.234Z,0
2018-12-30T01:28:31.590Z,0
2018-12-30T01:29:43.630Z,0
2018-12-30T01:30:57.805Z,0
2018-12-30T01:32:08.011Z,0
2018-12-30T01:33:20.271Z,0
2018-12-30T01:34:32.447Z,0
2018-12-30T01:35:44.765Z,0
2018-12-30T01:36:56.783Z,0
2018-12-30T01:38:09.077Z,0
2018-12-30T01:39:21.172Z,0
2018-12-30T01:40:33.434Z,0
2018-12-30T01:41:45.644Z,0
2018-12-30T01:42:57.836Z,0
2018-12-30T01:44:10.019Z,0
2018-12-30T01:45:22.219Z,0
2018-12-30T01:46:34.544Z,0
2018-12-30T01:47:46.616Z,0
2018-12-30T01:48:58.720Z,0
2018-12-30T01:50:10.914Z,0
2018-12-30T01:51:23.184Z,0
2018-12-30T01:52:35.398Z,0
2018-12-30T01:53:47.659Z,0
2018-12-30T01:54:59.778Z,0
2018-12-30T01:56:12.024Z,0
2018-12-30T01:57:26.050Z,0
2018-12-30T01:58:36.366Z,0
2018-12-30T01:59:48.538Z,0
2018-12-30T02:01:00.766Z,0
2018-12-30T02:02:12.926Z,0
2018-12-30T02:03:25.145Z,0
2018-12-30T02:04:37.403Z,0
2018-12-30T02:05:49.530Z,0
2018-12-30T02:07:01.649Z,0
2018-12-30T02:08:13.911Z,0
2018-12-30T02:09:26.083Z,0
2018-12-30T02:10:38.317Z,0
2018-12-30T02:11:50.406Z,0
2018-12-30T02:13:02.594Z,0
2018-12-30T02:14:14.793Z,0
2018-12-30T02:15:26.987Z,0
2018-12-30T02:16:39.183Z,0
2018-12-30T02:17:51.471Z,0
2018-12-30T02:19:03.637Z,0
2018-12-30T02:20:15.839Z,0
2018-12-30T02:21:27.965Z,0
2018-12-30T02:22:40.225Z,0
2018-12-30T02:23:52.334Z,0
2018-12-30T02:25:04.539Z,0
2018-12-30T02:26:16.778Z,0
2018-12-30T02:27:29.014Z,0
2018-12-30T02:28:41.252Z,0
2018-12-30T02:29:53.383Z,0
2018-12-30T02:31:05.603Z,0
2018-12-30T02:32:17.777Z,0
2018-12-30T02:33:29.915Z,0
2018-12-30T02:34:42.164Z,0
2018-12-30T02:35:54.279Z,0
2018-12-30T02:37:06.527Z,0
2018-12-30T02:38:18.730Z,0
2018-12-30T02:39:30.861Z,0
2018-12-30T02:40:43.223Z,0
2018-12-30T02:41:55.314Z,0
2018-12-30T02:43:07.446Z,0
2018-12-30T02:44:19.652Z,0
2018-12-30T02:45:31.847Z,0
2018-12-30T02:46:44.035Z,0
2018-12-30T02:47:56.264Z,0
2018-12-30T02:49:08.410Z,0
2018-12-30T02:50:20.626Z,0
2018-12-30T02:51:32.792Z,0
2018-12-30T02:52:45.103Z,0
2018-12-30T02:53:57.212Z,0
2018-12-30T02:55:09.456Z,0
2018-12-30T02:56:21.657Z,0
2018-12-30T02:57:33.774Z,0
2018-12-30T02:58:46.030Z,0
2018-12-30T02:59:58.250Z,0
2018-12-30T03:01:11.320Z,0
2018-12-30T03:02:22.611Z,0
2018-12-30T03:03:34.746Z,0
2018-12-30T03:04:47.031Z,0
2018-12-30T03:06:01.179Z,0
2018-12-30T03:07:11.355Z,0
2018-12-30T03:08:23.533Z,0
2018-12-30T03:09:35.792Z,0
2018-12-30T03:10:47.916Z,0
2018-12-30T03:12:00.121Z,0
2018-12-30T03:13:12.313Z,0
2018-12-30T03:14:24.562Z,0
2018-12-30T03:15:36.771Z,0
2018-12-30T03:16:49.059Z,0
2018-12-30T03:18:01.145Z,0
2018-12-30T03:19:13.352Z,0
2018-12-30T03:20:25.456Z,0
2018-12-30T03:21:37.653Z,0
2018-12-30T03:22:49.836Z,0
2018-12-30T03:24:02.265Z,0
2018-12-30T03:25:14.232Z,0
2018-12-30T03:26:26.500Z,0
2018-12-30T03:27:38.729Z,0
2018-12-30T03:28:50.804Z,0
2018-12-30T03:30:03.009Z,0
2018-12-30T03:31:15.301Z,0
2018-12-30T03:32:27.392Z,0
2018-12-30T03:33:39.669Z,0
2018-12-30T03:34:51.874Z,0
2018-12-30T03:36:04.087Z,0
2018-12-30T03:37:16.307Z,0
2018-12-30T03:38:28.349Z,0
2018-12-30T03:39:40.638Z,0
2018-12-30T03:40:52.879Z,0
2018-12-30T03:42:05.099Z,0
2018-12-30T03:43:17.217Z,0
2018-12-30T03:44:29.327Z,0
2018-12-30T03:45:41.605Z,0
2018-12-30T03:46:53.822Z,0
2018-12-30T03:48:05.916Z,0
2018-12-30T03:49:18.180Z,0
2018-12-30T03:50:30.286Z,0
2018-12-30T03:51:42.736Z,0
2018-12-30T03:52:54.874Z,0
2018-12-30T03:54:07.017Z,0
2018-12-30T03:55:19.070Z,0
2018-12-30T03:56:31.510Z,0
2018-12-30T03:57:43.453Z,0
2018-12-30T03:58:55.813Z,0
2018-12-30T04:00:07.843Z,0
2018-12-30T04:01:20.107Z,0
2018-12-30T04:02:32.373Z,0
2018-12-30T04:03:44.511Z,0
2018-12-30T04:04:56.713Z,0
2018-12-30T04:06:08.979Z,0
2018-12-30T04:07:21.077Z,0
2018-12-30T04:08:33.231Z,0
2018-12-30T04:09:45.399Z,0
2018-12-30T04:10:57.662Z,0
2018-12-30T04:12:09.854Z,0
2018-12-30T04:13:22.058Z,0
2018-12-30T04:14:34.171Z,0
2018-12-30T04:15:46.519Z,0
2018-12-30T04:16:58.650Z,0
2018-12-30T04:18:10.843Z,0
2018-12-30T04:19:23.039Z,0
2018-12-30T04:20:35.138Z,0
2018-12-30T04:21:47.418Z,0
2018-12-30T04:22:59.696Z,0
2018-12-30T04:24:11.771Z,0
2018-12-30T04:25:24.076Z,0
2018-12-30T04:26:36.289Z,0
2018-12-30T04:27:48.403Z,0
2018-12-30T04:29:00.681Z,0
2018-12-30T04:30:12.774Z,0
2018-12-30T04:31:24.885Z,0
2018-12-30T04:32:37.239Z,0
2018-12-30T04:33:49.270Z,0
2018-12-30T04:35:01.646Z,0
2018-12-30T04:36:13.680Z,0
2018-12-30T04:37:25.920Z,0
2018-12-30T04:38:38.046Z,0
2018-12-30T04:39:50.432Z,0
2018-12-30T04:41:02.520Z,0
2018-12-30T04:42:14.719Z,0
2018-12-30T04:43:26.838Z,0
2018-12-30T04:44:39.008Z,0
2018-12-30T04:45:51.277Z,0
2018-12-30T04:47:03.585Z,0
2018-12-30T04:48:15.681Z,0
2018-12-30T04:49:27.937Z,0
2018-12-30T04:50:40.014Z,0
2018-12-30T04:51:52.195Z,0
2018-12-30T04:53:04.537Z,0
2018-12-30T04:54:16.629Z,0
2018-12-30T04:55:28.846Z,0
2018-12-30T04:56:40.957Z,0
2018-12-30T04:57:53.147Z,0
2018-12-30T04:59:05.354Z,0
2018-12-30T05:00:17.541Z,0
2018-12-30T05:01:29.828Z,0
2018-12-30T05:02:41.928Z,0
2018-12-30T05:03:54.282Z,0
2018-12-30T05:05:06.319Z,0
2018-12-30T05:06:18.519Z,0
2018-12-30T05:07:30.710Z,0
2018-12-30T05:08:42.989Z,0
2018-12-30T05:09:56.056Z,0
2018-12-30T05:11:07.481Z,0
2018-12-30T05:12:19.609Z,0
2018-12-30T05:13:31.685Z,0
2018-12-30T05:14:43.872Z,0
2018-12-30T05:15:56.194Z,0
2018-12-30T05:17:08.262Z,0
2018-12-30T05:18:20.464Z,0
2018-12-30T05:19:32.761Z,0
2018-12-30T05:20:44.959Z,0
2018-12-30T05:21:57.054Z,0
2018-12-30T05:23:09.335Z,0
2018-12-30T05:24:21.510Z,0
2018-12-30T05:25:33.745Z,0
2018-12-30T05:26:45.837Z,0
2018-12-30T05:27:58.070Z,0
2018-12-30T05:29:10.318Z,0
2018-12-30T05:30:22.579Z,0
2018-12-30T05:31:34.694Z,0
2018-12-30T05:32:46.981Z,0
2018-12-30T05:33:59.006Z,0
2018-12-30T05:35:11.271Z,0
2018-12-30T05:36:23.487Z,0
2018-12-30T05:37:35.687Z,0
2018-12-30T05:38:47.870Z,0
2018-12-30T05:40:00.089Z,0
2018-12-30T05:41:12.282Z,0
2018-12-30T05:42:24.457Z,0
2018-12-30T05:43:36.615Z,0
2018-12-30T05:44:48.837Z,0
2018-12-30T05:46:01.029Z,0
2018-12-30T05:47:13.235Z,0
2018-12-30T05:48:25.426Z,0
2018-12-30T05:49:37.615Z,0
2018-12-30T05:50:49.810Z,0
2018-12-30T05:52:02.103Z,0
2018-12-30T05:53:14.217Z,0
2018-12-30T05:54:26.330Z,0
2018-12-30T05:55:38.570Z,0
2018-12-30T05:56:50.744Z,0
2018-12-30T05:58:02.911Z,0
2018-12-30T05:59:15.206Z,0
2018-12-30T06:00:27.296Z,0
2018-12-30T06:01:39.587Z,0
2018-12-30T06:02:51.764Z,0
2018-12-30T06:04:03.897Z,0
2018-12-30T06:05:16.077Z,0
2018-12-30T06:06:28.445Z,0
2018-12-30T06:07:40.562Z,0
2018-12-30T06:08:52.669Z,0
2018-12-30T06:10:04.933Z,0
2018-12-30T06:11:17.147Z,0
2018-12-30T06:12:29.327Z,0
2018-12-30T06:13:41.472Z,0
2018-12-30T06:14:53.723Z,0
2018-12-30T06:16:06.007Z,0
2018-12-30T06:17:18.201Z,0
2018-12-30T06:18:30.227Z,0
2018-12-30T06:19:42.521Z,0
2018-12-30T06:20:54.626Z,0
2018-12-30T06:22:06.818Z,0
2018-12-30T06:23:19.127Z,0
2018-12-30T06:24:31.305Z,0
2018-12-30T06:25:43.404Z,0
2018-12-30T06:26:55.635Z,0
2018-12-30T06:28:07.793Z,0
2018-12-30T06:29:20.156Z,0
2018-12-30T06:30:32.322Z,0
2018-12-30T06:31:44.444Z,0
2018-12-30T06:32:56.660Z,0
2018-12-30T06:34:08.761Z,0
2018-12-30T06:35:20.965Z,0
2018-12-30T06:36:33.155Z,0
2018-12-30T06:37:46.035Z,0
2018-12-30T06:38:57.640Z,0
2018-12-30T06:40:09.766Z,0
2018-12-30T06:41:22.064Z,0
2018-12-30T06:42:34.309Z,0
2018-12-30T06:43:46.346Z,0
2018-12-30T06:44:58.619Z,0
2018-12-30T06:46:10.797Z,0
2018-12-30T06:47:22.939Z,0
2018-12-30T06:48:35.154Z,0
2018-12-30T06:49:47.525Z,0
2018-12-30T06:50:59.521Z,0
2018-12-30T06:52:11.786Z,0
2018-12-30T06:53:24.064Z,0
2018-12-30T06:54:36.110Z,0
2018-12-30T06:55:48.310Z,0
2018-12-30T06:57:00.580Z,0
2018-12-30T06:58:12.699Z,0
2018-12-30T06:59:24.869Z,0
2018-12-30T07:00:37.203Z,0
2018-12-30T07:01:49.336Z,0
2018-12-30T07:03:01.460Z,0
2018-12-30T07:04:13.651Z,0
2018-12-30T07:05:25.939Z,0
2018-12-30T07:06:38.099Z,0
2018-12-30T07:07:50.246Z,0
2018-12-30T07:09:02.605Z,0
2018-12-30T07:10:14.622Z,0
2018-12-30T07:12:39.093Z,0
2018-12-30T07:13:51.308Z,0
2018-12-30T07:15:03.418Z,0
2018-12-30T07:16:15.680Z,0
2018-12-30T07:17:27.894Z,0
2018-12-30T07:18:39.996Z,0
2018-12-30T07:19:52.236Z,0
2018-12-30T07:21:04.390Z,0
2018-12-30T07:22:16.582Z,0
2018-12-30T07:23:28.774Z,0
2018-12-30T07:24:40.974Z,0
2018-12-30T07:25:53.238Z,0
2018-12-30T07:27:05.359Z,0
2018-12-30T07:28:17.571Z,0
2018-12-30T07:29:29.828Z,0
2018-12-30T07:30:42.021Z,0
2018-12-30T07:31:54.153Z,0
2018-12-30T07:33:06.430Z,0
2018-12-30T07:34:18.531Z,0
2018-12-30T07:35:30.730Z,0
2018-12-30T07:36:42.997Z,0
2018-12-30T07:37:55.114Z,0
2018-12-30T07:39:07.374Z,0
2018-12-30T07:40:19.509Z,0
2018-12-30T07:41:31.802Z,5
2018-12-30T07:42:43.974Z,5
2018-12-30T07:43:56.192Z,5
2018-12-30T07:45:08.430Z,5
2018-12-30T07:46:20.481Z,5
2018-12-30T07:47:32.678Z,5
2018-12-30T07:48:44.872Z,5
2018-12-30T07:49:57.110Z,5
2018-12-30T07:51:09.434Z,5
2018-12-30T07:52:21.476Z,5
2018-12-30T07:53:33.750Z,11
2018-12-30T07:54:45.848Z,11
2018-12-30T07:55:58.041Z,11
2018-12-30T07:57:10.318Z,11
2018-12-30T07:58:22.505Z,11
2018-12-30T07:59:34.639Z,11
2018-12-30T08:00:46.911Z,11
2018-12-30T08:01:59.016Z,11
2018-12-30T08:03:11.210Z,11
2018-12-30T08:04:23.490Z,11
2018-12-30T08:05:35.784Z,11
2018-12-30T08:06:47.879Z,11
2018-12-30T08:08:00.001Z,11
2018-12-30T08:09:12.200Z,11
2018-12-30T08:10:24.387Z,11
2018-12-30T08:11:36.673Z,11
2018-12-30T08:12:48.778Z,11
2018-12-30T08:14:00.979Z,16
2018-12-30T08:15:13.241Z,16
2018-12-30T08:16:25.405Z,11
2018-12-30T08:17:39.821Z,16
2018-12-30T08:18:49.767Z,16
2018-12-30T08:20:01.957Z,16
2018-12-30T08:21:14.223Z,16
2018-12-30T08:22:26.341Z,16
2018-12-30T08:23:38.553Z,16
2018-12-30T08:24:50.738Z,16
2018-12-30T08:26:03.002Z,16
2018-12-30T08:27:15.201Z,22
2018-12-30T08:28:27.329Z,22
2018-12-30T08:29:39.607Z,22
2018-12-30T08:30:51.706Z,22
2018-12-30T08:32:03.902Z,22
2018-12-30T08:33:16.158Z,22
2018-12-30T08:34:28.295Z,28
2018-12-30T08:35:40.574Z,28
2018-12-30T08:36:52.682Z,28
2018-12-30T08:38:04.980Z,33
2018-12-30T08:39:17.074Z,33
2018-12-30T08:40:29.361Z,45
2018-12-30T08:41:41.563Z,73
2018-12-30T08:42:53.738Z,106
2018-12-30T08:44:05.895Z,129
2018-12-30T08:45:18.127Z,90
2018-12-30T08:46:30.252Z,202
2018-12-30T08:47:42.520Z,213
2018-12-30T08:48:54.713Z,123
2018-12-30T08:50:06.965Z,146
2018-12-30T08:51:19.036Z,123
2018-12-30T08:52:31.328Z,236
2018-12-30T08:53:43.496Z,135
2018-12-30T08:54:55.707Z,135
2018-12-30T08:56:07.914Z,146
2018-12-30T08:57:20.097Z,118
2018-12-30T08:58:32.318Z,101
2018-12-30T08:59:44.502Z,106
2018-12-30T09:00:56.714Z,112
2018-12-30T09:02:08.867Z,90
2018-12-30T09:03:20.984Z,84
2018-12-30T09:04:33.188Z,84
2018-12-30T09:05:45.475Z,95
2018-12-30T09:06:57.632Z,90
2018-12-30T09:08:09.882Z,90
2018-12-30T09:09:22.113Z,95
2018-12-30T09:10:34.173Z,90
2018-12-30T09:11:46.386Z,90
2018-12-30T09:12:58.633Z,118
2018-12-30T09:14:11.829Z,106
2018-12-30T09:15:22.941Z,95
2018-12-30T09:16:35.214Z,84
2018-12-30T09:17:47.545Z,101
2018-12-30T09:18:59.530Z,101
2018-12-30T09:20:11.737Z,90
2018-12-30T09:21:23.917Z,101
2018-12-30T09:22:36.124Z,129
2018-12-30T09:23:48.311Z,112
2018-12-30T09:25:00.595Z,78
2018-12-30T09:26:12.720Z,84
2018-12-30T09:27:24.910Z,78
2018-12-30T09:28:37.171Z,84
2018-12-30T09:29:49.539Z,73
2018-12-30T09:31:04.784Z,90
2018-12-30T09:32:13.687Z,84
2018-12-30T09:33:25.945Z,106
2018-12-30T09:34:38.133Z,101
2018-12-30T09:35:50.265Z,78
2018-12-30T09:37:02.563Z,78
2018-12-30T09:38:14.729Z,78
2018-12-30T09:39:26.866Z,84
2018-12-30T09:40:39.790Z,90
2018-12-30T09:41:51.432Z,106
2018-12-30T09:43:03.530Z,118
2018-12-30T09:44:15.788Z,123
2018-12-30T09:45:27.873Z,95
2018-12-30T09:46:40.114Z,90
2018-12-30T09:47:52.318Z,112
2018-12-30T09:49:04.482Z,163
2018-12-30T09:50:16.687Z,123
2018-12-30T09:51:28.812Z,90
2018-12-30T09:52:41.083Z,78
2018-12-30T09:53:53.299Z,73
2018-12-30T09:55:05.477Z,67
2018-12-30T09:56:17.681Z,78
2018-12-30T09:57:29.882Z,112
2018-12-30T09:58:42.006Z,123
2018-12-30T09:59:54.241Z,118
2018-12-30T10:01:06.382Z,123
2018-12-30T10:02:18.576Z,135
2018-12-30T10:03:30.839Z,146
2018-12-30T10:04:43.030Z,129
2018-12-30T10:05:55.322Z,112
2018-12-30T10:07:07.350Z,95
2018-12-30T10:08:19.558Z,101
2018-12-30T10:09:31.739Z,112
2018-12-30T10:10:43.979Z,129
2018-12-30T10:11:56.267Z,135
2018-12-30T10:13:08.406Z,135
2018-12-30T10:14:20.641Z,112
2018-12-30T10:15:32.844Z,95
2018-12-30T10:16:45.023Z,78
2018-12-30T10:17:57.276Z,78
2018-12-30T10:19:09.384Z,84
2018-12-30T10:20:21.512Z,90
2018-12-30T10:21:33.785Z,90
2018-12-30T10:22:45.982Z,90
2018-12-30T10:23:58.182Z,84
2018-12-30T10:25:10.317Z,78
2018-12-30T10:26:22.568Z,73
2018-12-30T10:27:34.677Z,78
2018-12-30T10:28:47.052Z,101
2018-12-30T10:29:59.243Z,106
2018-12-30T10:31:11.370Z,101
2018-12-30T10:32:23.537Z,95
2018-12-30T10:33:35.731Z,95
2018-12-30T10:34:47.968Z,84
2018-12-30T10:36:00.050Z,84
2018-12-30T10:37:12.249Z,84
2018-12-30T10:38:24.525Z,84
2018-12-30T10:39:36.637Z,84
2018-12-30T10:40:48.886Z,78
2018-12-30T10:42:01.215Z,84
2018-12-30T10:43:13.305Z,84
2018-12-30T10:44:25.419Z,73
2018-12-30T10:45:37.619Z,78
2018-12-30T10:46:49.880Z,90
2018-12-30T10:48:02.006Z,90
2018-12-30T10:49:14.202Z,95
2018-12-30T10:50:26.396Z,95
2018-12-30T10:51:38.606Z,101
2018-12-30T10:52:50.782Z,95
2018-12-30T10:54:03.142Z,95
2018-12-30T10:55:15.198Z,95
2018-12-30T10:56:27.379Z,101
2018-12-30T10:57:39.606Z,101
2018-12-30T10:58:51.765Z,101
2018-12-30T11:00:03.962Z,101
2018-12-30T11:01:16.223Z,106
2018-12-30T11:02:28.352Z,101
2018-12-30T11:03:40.547Z,84
2018-12-30T11:04:52.857Z,84
2018-12-30T11:06:05.032Z,95
2018-12-30T11:07:17.143Z,101
2018-12-30T11:08:29.337Z,112
2018-12-30T11:09:41.531Z,95
2018-12-30T11:10:53.727Z,84
2018-12-30T11:12:05.917Z,90
2018-12-30T11:13:18.888Z,95
2018-12-30T11:14:30.437Z,106
2018-12-30T11:15:42.504Z,112
2018-12-30T11:16:54.773Z,101
2018-12-30T11:18:07.069Z,90
2018-12-30T11:19:19.107Z,95
2018-12-30T11:20:31.336Z,95
2018-12-30T11:21:43.575Z,95
2018-12-30T11:22:55.748Z,90
2018-12-30T11:24:07.879Z,90
2018-12-30T11:25:22.605Z,84
2018-12-30T11:26:32.381Z,90
2018-12-30T11:27:44.461Z,90
2018-12-30T11:28:56.667Z,95
2018-12-30T11:30:08.961Z,90
2018-12-30T11:31:21.095Z,95
2018-12-30T11:32:33.254Z,95
2018-12-30T11:33:45.528Z,101
2018-12-30T11:34:57.748Z,106
2018-12-30T11:36:10.013Z,95
2018-12-30T11:37:22.122Z,95
2018-12-30T11:38:34.293Z,101
2018-12-30T11:39:46.420Z,106
2018-12-30T11:40:58.678Z,112
2018-12-30T11:42:10.900Z,123
2018-12-30T11:43:23.076Z,118
2018-12-30T11:44:35.271Z,101
2018-12-30T11:45:47.516Z,95
2018-12-30T11:46:59.620Z,90
2018-12-30T11:48:11.789Z,84
2018-12-30T11:49:24.970Z,73
2018-12-30T11:50:36.347Z,61
2018-12-30T11:51:48.381Z,61
2018-12-30T11:53:00.572Z,61
2018-12-30T11:54:13.027Z,61
2018-12-30T11:55:25.108Z,61
2018-12-30T11:56:37.236Z,61
2018-12-30T11:57:49.440Z,61
2018-12-30T11:59:01.554Z,50
2018-12-30T12:00:13.750Z,56
2018-12-30T12:01:26.657Z,56
2018-12-30T12:02:38.199Z,56
2018-12-30T12:03:50.407Z,61
2018-12-30T12:05:02.621Z,50
2018-12-30T12:06:14.837Z,50
2018-12-30T12:07:27.115Z,50
2018-12-30T12:08:39.192Z,61
2018-12-30T12:09:51.308Z,67
2018-12-30T12:11:03.582Z,90
2018-12-30T12:12:15.785Z,106
2018-12-30T12:13:27.888Z,101
2018-12-30T12:14:40.168Z,90
2018-12-30T12:15:52.291Z,101
2018-12-30T12:17:04.500Z,101
2018-12-30T12:18:16.842Z,95
2018-12-30T12:19:28.868Z,84
2018-12-30T12:20:41.067Z,78
2018-12-30T12:21:53.319Z,78
2018-12-30T12:23:05.467Z,73
2018-12-30T12:24:17.855Z,67
2018-12-30T12:25:29.958Z,67
2018-12-30T12:26:42.261Z,73
2018-12-30T12:27:54.247Z,84
2018-12-30T12:29:06.428Z,101
2018-12-30T12:30:18.726Z,95
2018-12-30T12:31:30.823Z,101
2018-12-30T12:32:43.021Z,90
2018-12-30T12:33:55.234Z,78
2018-12-30T12:35:07.495Z,78
2018-12-30T12:36:19.613Z,84
2018-12-30T12:37:31.887Z,84
2018-12-30T12:38:44.082Z,78
2018-12-30T12:39:56.192Z,78
2018-12-30T12:41:08.401Z,78
2018-12-30T12:42:20.705Z,67
2018-12-30T12:43:32.859Z,73
2018-12-30T12:44:45.069Z,67
2018-12-30T12:45:57.175Z,50
2018-12-30T12:47:09.440Z,67
2018-12-30T12:48:21.556Z,73
2018-12-30T12:49:33.760Z,73
2018-12-30T12:50:45.954Z,73
2018-12-30T12:51:58.230Z,73
2018-12-30T12:53:10.435Z,73
2018-12-30T12:54:22.649Z,84
2018-12-30T12:55:34.803Z,78
2018-12-30T12:56:46.953Z,67
2018-12-30T12:57:59.139Z,78
2018-12-30T12:59:11.416Z,95
2018-12-30T13:00:23.634Z,101
2018-12-30T13:01:35.707Z,106
2018-12-30T13:02:47.903Z,95
2018-12-30T13:04:00.183Z,101
2018-12-30T13:05:12.300Z,95
2018-12-30T13:06:24.613Z,90
2018-12-30T13:07:36.733Z,84
2018-12-30T13:08:48.884Z,90
2018-12-30T13:10:01.072Z,95
2018-12-30T13:11:13.642Z,90
2018-12-30T13:12:25.653Z,90
2018-12-30T13:13:37.835Z,84
2018-12-30T13:14:49.937Z,84
2018-12-30T13:16:02.096Z,95
2018-12-30T13:17:14.329Z,90
2018-12-30T13:18:26.546Z,90
2018-12-30T13:19:38.740Z,90
2018-12-30T13:20:50.916Z,84
2018-12-30T13:22:03.040Z,78
2018-12-30T13:23:15.313Z,73
2018-12-30T13:24:27.424Z,67
2018-12-30T13:25:39.692Z,67
2018-12-30T13:26:51.920Z,67
2018-12-30T13:28:04.010Z,67
2018-12-30T13:29:16.367Z,73
2018-12-30T13:30:28.599Z,67
2018-12-30T13:31:40.677Z,67
2018-12-30T13:32:52.790Z,67
2018-12-30T13:34:05.003Z,61
2018-12-30T13:35:17.269Z,61
2018-12-30T13:36:29.383Z,67
2018-12-30T13:37:41.580Z,61
2018-12-30T13:38:53.781Z,61
2018-12-30T13:40:05.979Z,56
2018-12-30T13:41:18.189Z,50
2018-12-30T13:42:30.545Z,50
2018-12-30T13:43:42.643Z,50
2018-12-30T13:44:54.830Z,45
2018-12-30T13:46:06.951Z,45
2018-12-30T13:47:19.226Z,39
2018-12-30T13:48:31.363Z,39
2018-12-30T13:49:43.534Z,39
2018-12-30T13:50:55.723Z,39
2018-12-30T13:52:07.927Z,45
2018-12-30T13:53:20.120Z,39
2018-12-30T13:54:32.513Z,39
2018-12-30T13:55:44.590Z,39
2018-12-30T13:56:56.775Z,39
2018-12-30T13:58:08.897Z,39
2018-12-30T13:59:21.211Z,39
2018-12-30T14:00:33.382Z,39
2018-12-30T14:01:45.479Z,45
2018-12-30T14:02:57.680Z,45
2018-12-30T14:04:09.878Z,39
2018-12-30T14:05:22.186Z,39
2018-12-30T14:06:34.372Z,39
2018-12-30T14:07:46.553Z,33
2018-12-30T14:08:58.655Z,33
2018-12-30T14:10:11.109Z,28
2018-12-30T14:11:23.061Z,28
2018-12-30T14:12:35.255Z,28
2018-12-30T14:13:47.520Z,28
2018-12-30T14:14:59.629Z,28
2018-12-30T14:16:11.919Z,28
2018-12-30T14:17:24.057Z,28
2018-12-30T14:18:36.221Z,28
2018-12-30T14:19:48.489Z,28
2018-12-30T14:21:00.701Z,28
2018-12-30T14:22:12.895Z,28
2018-12-30T14:23:24.989Z,28
2018-12-30T14:24:37.275Z,28
2018-12-30T14:25:49.463Z,22
2018-12-30T14:27:01.580Z,28
2018-12-30T14:28:13.844Z,22
2018-12-30T14:29:25.970Z,22
2018-12-30T14:30:38.331Z,22
2018-12-30T14:31:50.415Z,22
2018-12-30T14:33:02.704Z,22
2018-12-30T14:34:14.816Z,16
2018-12-30T14:35:27.024Z,16
2018-12-30T14:36:39.294Z,16
2018-12-30T14:37:51.394Z,16
2018-12-30T14:39:03.528Z,16
2018-12-30T14:40:15.712Z,16
2018-12-30T14:41:27.909Z,16
2018-12-30T14:42:40.257Z,16
2018-12-30T14:43:52.284Z,16
2018-12-30T14:45:04.563Z,16
2018-12-30T14:46:16.747Z,16
2018-12-30T14:47:28.872Z,16
2018-12-30T14:48:41.138Z,16
2018-12-30T14:49:53.254Z,16
2018-12-30T14:51:05.449Z,16
2018-12-30T14:52:17.725Z,16
2018-12-30T14:53:29.964Z,16
2018-12-30T14:54:42.209Z,22
2018-12-30T14:55:54.305Z,22
2018-12-30T14:57:06.426Z,22
2018-12-30T14:58:18.727Z,22
2018-12-30T14:59:30.875Z,16
2018-12-30T15:00:43.072Z,16
2018-12-30T15:01:55.199Z,16
2018-12-30T15:03:11.096Z,16
2018-12-30T15:04:19.659Z,16
2018-12-30T15:05:31.848Z,16
2018-12-30T15:06:44.203Z,16
2018-12-30T15:07:56.165Z,11
2018-12-30T15:09:08.433Z,11
2018-12-30T15:10:20.618Z,5
2018-12-30T15:11:32.766Z,5
2018-12-30T15:12:44.933Z,5
2018-12-30T15:13:57.137Z,5
2018-12-30T15:15:09.370Z,5
2018-12-30T15:16:21.552Z,5
2018-12-30T15:17:33.792Z,5
2018-12-30T15:18:46.004Z,5
2018-12-30T15:19:58.184Z,5
2018-12-30T15:21:10.297Z,5
2018-12-30T15:22:22.517Z,5
2018-12-30T15:23:34.818Z,0
2018-12-30T15:24:46.950Z,0
2018-12-30T15:25:59.147Z,0
2018-12-30T15:27:11.361Z,0
2018-12-30T15:28:23.460Z,0
2018-12-30T15:29:35.741Z,0
2018-12-30T15:30:50.687Z,0
2018-12-30T15:32:00.039Z,0
2018-12-30T15:33:12.317Z,0
2018-12-30T15:34:24.444Z,0
2018-12-30T15:35:36.707Z,0
2018-12-30T15:36:48.824Z,0
2018-12-30T15:38:01.079Z,0
2018-12-30T15:39:13.250Z,0
2018-12-30T15:40:25.468Z,0
2018-12-30T15:41:37.680Z,0
2018-12-30T15:42:49.940Z,0
2018-12-30T15:44:01.972Z,0
2018-12-30T15:45:14.223Z,0
2018-12-30T15:46:26.367Z,0
2018-12-30T15:47:38.660Z,0
2018-12-30T15:48:50.748Z,0
2018-12-30T15:50:02.983Z,0
2018-12-30T15:51:15.140Z,0
2018-12-30T15:52:27.338Z,0
2018-12-30T15:53:39.679Z,0
2018-12-30T15:54:51.822Z,0
2018-12-30T15:56:03.914Z,0
2018-12-30T15:57:16.286Z,0
2018-12-30T15:58:28.316Z,0
2018-12-30T15:59:40.591Z,0
2018-12-30T16:00:53.440Z,0
2018-12-30T16:02:05.031Z,0
2018-12-30T16:03:17.149Z,0
2018-12-30T16:04:29.328Z,0
2018-12-30T16:05:41.488Z,0
2018-12-30T16:06:53.677Z,0
2018-12-30T16:08:06.011Z,0
2018-12-30T16:09:18.128Z,0
2018-12-30T16:10:30.245Z,0
2018-12-30T16:11:42.550Z,0
2018-12-30T16:12:54.630Z,0
2018-12-30T16:14:06.820Z,0
2018-12-30T16:15:19.146Z,0
2018-12-30T16:16:31.321Z,0
2018-12-30T16:17:43.501Z,0
2018-12-30T16:18:55.687Z,0
2018-12-30T16:20:07.889Z,0
2018-12-30T16:21:19.980Z,0
2018-12-30T16:22:32.363Z,0
2018-12-30T16:23:44.446Z,0
2018-12-30T16:24:56.608Z,0
2018-12-30T16:26:08.842Z,0
2018-12-30T16:27:20.954Z,0
2018-12-30T16:28:33.224Z,0
2018-12-30T16:29:45.409Z,0
2018-12-30T16:30:57.607Z,0
2018-12-30T16:32:09.795Z,0
2018-12-30T16:33:22.047Z,0
2018-12-30T16:34:34.185Z,0
2018-12-30T16:35:46.436Z,0
2018-12-30T16:36:58.732Z,0
2018-12-30T16:38:10.689Z,0
2018-12-30T16:39:22.883Z,0
2018-12-30T16:40:35.086Z,0
2018-12-30T16:41:47.378Z,0
2018-12-30T16:42:59.639Z,0
2018-12-30T16:44:11.782Z,0
2018-12-30T16:45:23.926Z,0
2018-12-30T16:46:36.126Z,0
2018-12-30T16:47:48.257Z,0
2018-12-30T16:49:00.440Z,0
2018-12-30T16:50:12.632Z,0
2018-12-30T16:51:24.870Z,0
2018-12-30T16:52:37.016Z,0
2018-12-30T16:53:49.211Z,0
2018-12-30T16:55:01.574Z,0
2018-12-30T16:56:13.658Z,0
2018-12-30T16:57:25.834Z,0
2018-12-30T16:58:37.991Z,0
2018-12-30T16:59:50.195Z,0
2018-12-30T17:01:02.406Z,0
2018-12-30T17:02:14.576Z,0
2018-12-30T17:03:26.845Z,0
2018-12-30T17:04:38.965Z,0
2018-12-30T17:05:51.167Z,0
2018-12-30T17:07:03.500Z,0
2018-12-30T17:08:15.538Z,0
2018-12-30T17:09:27.739Z,0
2018-12-30T17:10:40.015Z,0
2018-12-30T17:11:52.136Z,0
2018-12-30T17:13:04.319Z,0
2018-12-30T17:14:16.619Z,0
2018-12-30T17:15:28.805Z,0
2018-12-30T17:16:40.907Z,0
2018-12-30T17:17:53.159Z,0
2018-12-30T17:19:05.394Z,0
2018-12-30T17:20:17.517Z,0
2018-12-30T17:21:29.707Z,0
2018-12-30T17:22:41.954Z,0
2018-12-30T17:23:54.185Z,0
2018-12-30T17:25:07.721Z,0
2018-12-30T17:26:18.474Z,0
2018-12-30T17:27:30.646Z,0
2018-12-30T17:28:42.928Z,0
2018-12-30T17:29:55.032Z,0